Time,TemperatureF,DewpointF,PressureIn,WindDirection,WindDirectionDegrees,WindSpeedMPH,WindSpeedGustMPH,Humidity,HourlyPrecipIn,Conditions,Clouds,dailyrainin,SoftwareType,DateUTC
2013-01-19 00:01:00,31.0,8.4,30.14,South,173,0.0,0.0,38,0.00,,---,0.00,VWS V14.00,2013-01-19 07:01:00,
2013-01-19 00:07:00,31.3,8.6,30.12,South,173,0.0,1.0,38,0.00,,---,0.00,VWS V14.00,2013-01-19 07:07:00,
2013-01-19 00:12:00,31.4,8.7,30.12,South,173,0.0,0.0,38,0.00,,---,0.00,VWS V14.00,2013-01-19 07:12:00,
2013-01-19 00:17:00,31.4,8.1,30.12,South,173,0.0,0.0,37,0.00,,---,0.00,VWS V14.00,2013-01-19 07:17:00,
2013-01-19 00:22:00,31.3,8.6,30.12,South,173,0.0,0.0,38,0.00,,---,0.00,VWS V14.00,2013-01-19 07:22:00,
2013-01-19 00:27:00,31.1,8.5,30.12,South,173,0.0,0.0,38,0.00,,---,0.00,VWS V14.00,2013-01-19 07:27:00,
2013-01-19 00:32:00,31.0,9.0,30.12,South,173,0.0,0.0,39,0.00,,---,0.00,VWS V14.00,2013-01-19 07:32:00,
2013-01-19 00:37:00,31.0,9.0,30.12,South,173,0.0,1.0,39,0.00,,---,0.00,VWS V14.00,2013-01-19 07:37:00,
2013-01-19 00:42:00,31.0,9.0,30.12,South,173,0.0,0.0,39,0.00,,---,0.00,VWS V14.00,2013-01-19 07:42:00,
2013-01-19 00:47:00,30.8,8.8,30.12,South,173,0.0,0.0,39,0.00,,---,0.00,VWS V14.00,2013-01-19 07:47:00,
2013-01-19 00:52:00,30.7,8.7,30.12,South,173,0.0,0.0,39,0.00,,---,0.00,VWS V14.00,2013-01-19 07:52:00,
2013-01-19 00:57:00,30.6,9.2,30.12,South,173,0.0,0.0,40,0.00,,---,0.00,VWS V14.00,2013-01-19 07:57:00,
2013-01-19 01:02:00,30.4,9.0,30.11,South,173,0.0,0.0,40,0.00,,---,0.00,VWS V14.00,2013-01-19 08:02:00,
2013-01-19 01:07:00,30.3,8.9,30.13,South,173,0.0,0.0,40,0.00,,---,0.00,VWS V14.00,2013-01-19 08:07:00,
2013-01-19 01:12:00,30.1,8.7,30.14,South,173,0.0,0.0,40,0.00,,---,0.00,VWS V14.00,2013-01-19 08:12:00,
2013-01-19 01:17:00,30.0,8.6,30.14,South,173,0.0,0.0,40,0.00,,---,0.00,VWS V14.00,2013-01-19 08:17:00,
2013-01-19 01:22:00,29.9,9.1,30.14,South,173,0.0,0.0,41,0.00,,---,0.00,VWS V14.00,2013-01-19 08:22:00,
2013-01-19 01:27:00,29.7,8.9,30.14,South,173,0.0,0.0,41,0.00,,---,0.00,VWS V14.00,2013-01-19 08:27:00,
2013-01-19 01:32:00,29.6,9.3,30.14,South,173,0.0,0.0,42,0.00,,---,0.00,VWS V14.00,2013-01-19 08:32:00,
2013-01-19 01:37:00,29.3,9.1,30.15,South,172,0.0,0.0,42,0.00,,---,0.00,VWS V14.00,2013-01-19 08:37:00,
2013-01-19 01:42:00,29.2,9.5,30.15,South,172,0.0,0.0,43,0.00,,---,0.00,VWS V14.00,2013-01-19 08:42:00,
2013-01-19 01:47:00,29.0,9.3,30.15,South,172,0.0,0.0,43,0.00,,---,0.00,VWS V14.00,2013-01-19 08:47:00,
2013-01-19 01:52:00,29.0,9.3,30.15,South,172,0.0,0.0,43,0.00,,---,0.00,VWS V14.00,2013-01-19 08:52:00,
2013-01-19 01:57:00,29.2,9.5,30.15,South,172,0.0,0.0,43,0.00,,---,0.00,VWS V14.00,2013-01-19 08:57:00,
2013-01-19 02:02:00,29.4,9.2,30.16,South,172,0.0,0.0,42,0.00,,---,0.00,VWS V14.00,2013-01-19 09:02:00,
2013-01-19 02:07:00,29.3,9.1,30.17,South,172,1.0,1.0,42,0.00,,---,0.00,VWS V14.00,2013-01-19 09:07:00,
2013-01-19 02:12:00,29.2,9.5,30.17,South,172,0.0,0.0,43,0.00,,---,0.00,VWS V14.00,2013-01-19 09:12:00,
2013-01-19 02:17:00,29.1,9.4,30.17,South,172,0.0,0.0,43,0.00,,---,0.00,VWS V14.00,2013-01-19 09:17:00,
2013-01-19 02:22:00,29.4,9.2,30.17,South,172,0.0,2.0,42,0.00,,---,0.00,VWS V14.00,2013-01-19 09:22:00,
2013-01-19 02:27:00,29.5,9.2,30.16,South,172,0.0,0.0,42,0.00,,---,0.00,VWS V14.00,2013-01-19 09:27:00,
2013-01-19 02:32:00,29.6,9.3,30.16,South,172,1.0,1.0,42,0.00,,---,0.00,VWS V14.00,2013-01-19 09:32:00,
2013-01-19 02:37:00,29.8,9.5,30.16,South,172,0.0,0.0,42,0.00,,---,0.00,VWS V14.00,2013-01-19 09:37:00,
2013-01-19 02:42:00,29.8,9.0,30.17,South,172,0.0,0.0,41,0.00,,---,0.00,VWS V14.00,2013-01-19 09:42:00,
2013-01-19 02:47:00,29.8,9.0,30.18,South,172,0.0,0.0,41,0.00,,---,0.00,VWS V14.00,2013-01-19 09:47:00,
2013-01-19 02:52:00,29.7,9.4,30.17,South,172,0.0,1.0,42,0.00,,---,0.00,VWS V14.00,2013-01-19 09:52:00,
2013-01-19 02:57:00,29.6,9.3,30.16,South,172,0.0,0.0,42,0.00,,---,0.00,VWS V14.00,2013-01-19 09:57:00,
2013-01-19 03:02:00,29.4,9.2,30.19,South,172,0.0,0.0,42,0.00,,---,0.00,VWS V14.00,2013-01-19 10:02:00,
2013-01-19 03:07:00,29.4,8.6,30.20,South,172,0.0,0.0,41,0.00,,---,0.00,VWS V14.00,2013-01-19 10:07:00,
2013-01-19 03:12:00,29.5,8.2,30.18,South,172,0.0,0.0,40,0.00,,---,0.00,VWS V14.00,2013-01-19 10:12:00,
2013-01-19 03:17:00,29.8,7.9,30.18,South,172,0.0,0.0,39,0.00,,---,0.00,VWS V14.00,2013-01-19 10:17:00,
2013-01-19 03:22:00,30.3,8.3,30.18,South,172,0.0,0.0,39,0.00,,---,0.00,VWS V14.00,2013-01-19 10:22:00,
2013-01-19 03:27:00,30.9,7.7,30.18,South,172,0.0,0.0,37,0.00,,---,0.00,VWS V14.00,2013-01-19 10:27:00,
2013-01-19 03:32:00,31.5,7.6,30.17,South,172,0.0,0.0,36,0.00,,---,0.00,VWS V14.00,2013-01-19 10:32:00,
2013-01-19 03:37:00,32.2,8.3,30.17,South,172,0.0,0.0,36,0.00,,---,0.00,VWS V14.00,2013-01-19 10:37:00,
2013-01-19 03:42:00,33.4,8.1,30.17,WNW,298,1.0,6.0,34,0.00,,---,0.00,VWS V14.00,2013-01-19 10:42:00,
2013-01-19 03:47:00,34.9,8.7,30.16,WNW,298,0.0,0.0,33,0.00,,---,0.00,VWS V14.00,2013-01-19 10:47:00,
2013-01-19 03:52:00,35.9,8.2,30.15,WNW,298,1.0,1.0,31,0.00,,---,0.00,VWS V14.00,2013-01-19 10:52:00,
2013-01-19 03:57:00,36.8,8.3,30.14,WNW,298,0.0,0.0,30,0.00,,---,0.00,VWS V14.00,2013-01-19 10:57:00,
2013-01-19 04:02:00,37.3,8.7,30.17,WNW,300,0.0,3.0,30,0.00,,---,0.00,VWS V14.00,2013-01-19 11:02:00,
2013-01-19 04:07:00,38.4,8.9,30.17,North,355,0.0,3.0,29,0.00,,---,0.00,VWS V14.00,2013-01-19 11:07:00,
2013-01-19 04:12:00,39.8,9.4,30.16,NE,42,0.0,0.0,28,0.00,,---,0.00,VWS V14.00,2013-01-19 11:12:00,
2013-01-19 05:48:00,35.1,8.2,30.25,ESE,109,0.0,1.0,32,0.00,,---,0.00,VWS V14.00,2013-01-19 12:48:00,
2013-01-19 05:49:00,34.9,8.1,30.25,ESE,109,0.0,0.0,32,0.00,,---,0.00,VWS V14.00,2013-01-19 12:49:00,
2013-01-19 05:52:00,34.4,8.3,30.25,ESE,109,0.0,0.0,33,0.00,,---,0.00,VWS V14.00,2013-01-19 12:52:00,
2013-01-19 05:54:00,34.4,8.3,30.25,ESE,109,0.0,0.0,33,0.00,,---,0.00,VWS V14.00,2013-01-19 12:54:00,
2013-01-19 05:59:00,33.6,8.2,30.26,ESE,109,0.0,0.0,34,0.00,,---,0.00,VWS V14.00,2013-01-19 12:59:00,
2013-01-19 06:04:00,33.0,8.4,30.28,ESE,109,0.0,0.0,35,0.00,,---,0.00,VWS V14.00,2013-01-19 13:04:00,
2013-01-19 06:09:00,32.4,8.4,30.29,ESE,109,0.0,0.0,36,0.00,,---,0.00,VWS V14.00,2013-01-19 13:09:00,
2013-01-19 06:14:00,31.4,8.7,30.29,ESE,109,0.0,0.0,38,0.00,,---,0.00,VWS V14.00,2013-01-19 13:14:00,
2013-01-19 06:19:00,30.8,8.2,30.29,ESE,109,0.0,0.0,38,0.00,,---,0.00,VWS V14.00,2013-01-19 13:19:00,
2013-01-19 06:24:00,30.4,8.4,30.31,ESE,109,0.0,0.0,39,0.00,,---,0.00,VWS V14.00,2013-01-19 13:24:00,
2013-01-19 06:29:00,29.9,8.5,30.31,ESE,109,0.0,0.0,40,0.00,,---,0.00,VWS V14.00,2013-01-19 13:29:00,
2013-01-19 06:34:00,29.5,8.2,30.32,ESE,109,0.0,0.0,40,0.00,,---,0.00,VWS V14.00,2013-01-19 13:34:00,
2013-01-19 06:39:00,29.0,8.8,30.32,ESE,109,1.0,1.0,42,0.00,,---,0.00,VWS V14.00,2013-01-19 13:39:00,
2013-01-19 06:44:00,28.5,8.9,30.33,ESE,109,0.0,0.0,43,0.00,,---,0.00,VWS V14.00,2013-01-19 13:44:00,
2013-01-19 06:49:00,28.1,8.5,30.34,ESE,109,0.0,1.0,43,0.00,,---,0.00,VWS V14.00,2013-01-19 13:49:00,
2013-01-19 06:55:00,27.7,8.6,30.34,ESE,109,0.0,0.0,44,0.00,,---,0.00,VWS V14.00,2013-01-19 13:55:00,
2013-01-19 07:00:00,27.6,8.6,30.34,ESE,109,0.0,0.0,44,0.00,,---,0.00,VWS V14.00,2013-01-19 14:00:00,
2013-01-19 07:05:00,27.4,8.4,30.36,ESE,109,0.0,0.0,44,0.00,,---,0.00,VWS V14.00,2013-01-19 14:05:00,
2013-01-19 07:10:00,27.2,8.2,30.36,ESE,109,0.0,0.0,44,0.00,,---,0.00,VWS V14.00,2013-01-19 14:10:00,
2013-01-19 07:15:00,27.0,8.0,30.36,ESE,109,0.0,0.0,44,0.00,,---,0.00,VWS V14.00,2013-01-19 14:15:00,
2013-01-19 07:20:00,26.8,8.3,30.36,ESE,109,0.0,1.0,45,0.00,,---,0.00,VWS V14.00,2013-01-19 14:20:00,
2013-01-19 07:25:00,26.5,8.5,30.36,ESE,109,0.0,0.0,46,0.00,,---,0.00,VWS V14.00,2013-01-19 14:25:00,
2013-01-19 07:30:00,26.4,8.4,30.37,ESE,109,0.0,0.0,46,0.00,,---,0.00,VWS V14.00,2013-01-19 14:30:00,
2013-01-19 07:35:00,26.3,8.4,30.37,ESE,109,0.0,0.0,46,0.00,,---,0.00,VWS V14.00,2013-01-19 14:35:00,
2013-01-19 07:40:00,26.2,8.3,30.37,ESE,109,0.0,0.0,46,0.00,,---,0.00,VWS V14.00,2013-01-19 14:40:00,
2013-01-19 07:45:00,26.2,8.7,30.37,ESE,109,0.0,0.0,47,0.00,,---,0.00,VWS V14.00,2013-01-19 14:45:00,
2013-01-19 07:52:00,26.2,8.7,30.37,ESE,109,0.0,0.0,47,0.00,,---,0.00,VWS V14.00,2013-01-19 14:52:00,
2013-01-19 07:57:00,26.2,8.3,30.37,ESE,109,0.0,0.0,46,0.00,,---,0.00,VWS V14.00,2013-01-19 14:57:00,
2013-01-19 08:02:00,26.8,9.3,30.38,ESE,109,0.0,0.0,47,0.00,,---,0.00,VWS V14.00,2013-01-19 15:02:00,
2013-01-19 08:07:00,27.7,9.6,30.36,ESE,109,0.0,0.0,46,0.00,,---,0.00,VWS V14.00,2013-01-19 15:07:00,
2013-01-19 08:12:00,28.2,10.1,30.36,ESE,109,0.0,0.0,46,0.00,,---,0.00,VWS V14.00,2013-01-19 15:12:00,
2013-01-19 08:17:00,28.7,10.1,30.37,ESE,109,0.0,1.0,45,0.00,,---,0.00,VWS V14.00,2013-01-19 15:17:00,
2013-01-19 08:23:00,29.9,10.1,30.36,ESE,109,0.0,0.0,43,0.00,,---,0.00,VWS V14.00,2013-01-19 15:23:00,
2013-01-19 08:28:00,30.5,10.2,30.36,ESE,109,0.0,1.0,42,0.00,,---,0.00,VWS V14.00,2013-01-19 15:28:00,
2013-01-19 08:33:00,31.1,10.7,30.37,ESE,109,0.0,2.0,42,0.00,,---,0.00,VWS V14.00,2013-01-19 15:33:00,
2013-01-19 08:38:00,31.9,10.3,30.35,ESE,109,0.0,1.0,40,0.00,,---,0.00,VWS V14.00,2013-01-19 15:38:00,
2013-01-19 08:43:00,32.6,11.0,30.36,ESE,109,1.0,1.0,40,0.00,,---,0.00,VWS V14.00,2013-01-19 15:43:00,
2013-01-19 08:48:00,33.3,11.0,30.36,ESE,109,0.0,0.0,39,0.00,,---,0.00,VWS V14.00,2013-01-19 15:48:00,
2013-01-19 08:53:00,34.7,11.1,30.35,ESE,109,0.0,1.0,37,0.00,,---,0.00,VWS V14.00,2013-01-19 15:53:00,
2013-01-19 08:58:00,36.0,11.0,30.34,ESE,109,0.0,1.0,35,0.00,,---,0.00,VWS V14.00,2013-01-19 15:58:00,
2013-01-19 09:03:00,37.0,10.6,30.35,ESE,109,0.0,0.0,33,0.00,,---,0.00,VWS V14.00,2013-01-19 16:03:00,
2013-01-19 09:08:00,37.8,11.3,30.35,ESE,109,0.0,1.0,33,0.00,,---,0.00,VWS V14.00,2013-01-19 16:08:00,
2013-01-19 09:13:00,37.7,11.2,30.35,South,173,0.0,1.0,33,0.00,,---,0.00,VWS V14.00,2013-01-19 16:13:00,
2013-01-19 09:18:00,37.3,11.5,30.36,South,173,0.0,1.0,34,0.00,,---,0.00,VWS V14.00,2013-01-19 16:18:00,
2013-01-19 09:23:00,37.5,11.7,30.36,South,173,1.0,1.0,34,0.00,,---,0.00,VWS V14.00,2013-01-19 16:23:00,
2013-01-19 09:29:00,38.4,12.5,30.36,ESE,117,0.0,2.0,34,0.00,,---,0.00,VWS V14.00,2013-01-19 16:29:00,
2013-01-19 09:34:00,39.1,12.4,30.35,ESE,117,0.0,0.0,33,0.00,,---,0.00,VWS V14.00,2013-01-19 16:34:00,
2013-01-19 09:39:00,39.8,13.1,30.35,ESE,117,0.0,1.0,33,0.00,,---,0.00,VWS V14.00,2013-01-19 16:39:00,
2013-01-19 09:44:00,40.7,13.1,30.34,ESE,117,0.0,1.0,32,0.00,,---,0.00,VWS V14.00,2013-01-19 16:44:00,
2013-01-19 09:49:00,41.4,13.1,30.34,ESE,118,0.0,0.0,31,0.00,,---,0.00,VWS V14.00,2013-01-19 16:49:00,
2013-01-19 09:54:00,42.2,13.8,30.34,ESE,118,0.0,0.0,31,0.00,,---,0.00,VWS V14.00,2013-01-19 16:54:00,
2013-01-19 10:00:00,43.2,13.9,30.33,ESE,120,0.0,0.0,30,0.00,,---,0.00,VWS V14.00,2013-01-19 17:00:00,
2013-01-19 10:05:00,44.1,13.9,30.36,SSE,153,0.0,1.0,29,0.00,,---,0.00,VWS V14.00,2013-01-19 17:05:00,
2013-01-19 10:10:00,45.0,13.9,30.35,SSE,160,0.0,1.0,28,0.00,,---,0.00,VWS V14.00,2013-01-19 17:10:00,
2013-01-19 10:15:00,45.8,13.7,30.35,SSE,160,0.0,1.0,27,0.00,,---,0.00,VWS V14.00,2013-01-19 17:15:00,
2013-01-19 10:20:00,46.9,13.8,30.33,SSW,205,2.0,3.0,26,0.00,,---,0.00,VWS V14.00,2013-01-19 17:20:00,
2013-01-19 10:26:00,47.7,13.6,30.33,SSW,196,0.0,2.0,25,0.00,,---,0.00,VWS V14.00,2013-01-19 17:26:00,
2013-01-19 10:31:00,48.6,14.4,30.33,SSW,192,0.0,1.0,25,0.00,,---,0.00,VWS V14.00,2013-01-19 17:31:00,
2013-01-19 10:36:00,48.7,14.5,30.32,SSW,192,0.0,2.0,25,0.00,,---,0.00,VWS V14.00,2013-01-19 17:36:00,
2013-01-19 10:42:00,49.0,13.8,30.31,SSW,192,0.0,0.0,24,0.00,,---,0.00,VWS V14.00,2013-01-19 17:42:00,
2013-01-19 10:48:00,49.8,14.5,30.31,SSW,193,0.0,0.0,24,0.00,,---,0.00,VWS V14.00,2013-01-19 17:48:00,
2013-01-19 10:54:00,50.0,13.7,30.31,ESE,111,3.0,3.0,23,0.00,,---,0.00,VWS V14.00,2013-01-19 17:54:00,
2013-01-19 10:59:00,50.2,13.9,30.31,ESE,111,1.0,1.0,23,0.00,,---,0.00,VWS V14.00,2013-01-19 17:59:00,
2013-01-19 11:06:00,50.5,14.1,30.32,ESE,111,1.0,2.0,23,0.00,,---,0.00,VWS V14.00,2013-01-19 18:06:00,
2013-01-19 11:11:00,50.7,14.3,30.30,SE,143,2.0,2.0,23,0.00,,---,0.00,VWS V14.00,2013-01-19 18:11:00,
2013-01-19 11:18:00,51.1,13.6,30.30,SE,145,0.0,1.0,22,0.00,,---,0.00,VWS V14.00,2013-01-19 18:18:00,
2013-01-19 11:24:00,51.5,13.9,30.29,ESE,123,0.0,2.0,22,0.00,,---,0.00,VWS V14.00,2013-01-19 18:24:00,
2013-01-19 11:29:00,52.1,13.4,30.29,ESE,123,0.0,2.0,21,0.00,,---,0.00,VWS V14.00,2013-01-19 18:29:00,
2013-01-19 11:34:00,52.7,13.9,30.28,ESE,123,0.0,0.0,21,0.00,,---,0.00,VWS V14.00,2013-01-19 18:34:00,
2013-01-19 11:40:00,53.0,14.1,30.27,ESE,119,0.0,2.0,21,0.00,,---,0.00,VWS V14.00,2013-01-19 18:40:00,
2013-01-19 11:45:00,52.7,12.8,30.27,South,190,0.0,0.0,20,0.00,,---,0.00,VWS V14.00,2013-01-19 18:45:00,
2013-01-19 11:50:00,53.3,14.4,30.27,ESE,114,0.0,2.0,21,0.00,,---,0.00,VWS V14.00,2013-01-19 18:50:00,
2013-01-19 11:55:00,53.6,13.5,30.26,ESE,122,1.0,2.0,20,0.00,,---,0.00,VWS V14.00,2013-01-19 18:55:00,
2013-01-19 12:02:00,54.2,14.0,30.26,ESE,115,0.0,2.0,20,0.00,,---,0.00,VWS V14.00,2013-01-19 19:02:00,
2013-01-19 12:07:00,54.6,14.4,30.25,ESE,116,3.0,5.0,20,0.00,,---,0.00,VWS V14.00,2013-01-19 19:07:00,
2013-01-19 12:12:00,55.3,13.8,30.24,SE,134,0.0,2.0,19,0.00,,---,0.00,VWS V14.00,2013-01-19 19:12:00,
2013-01-19 12:18:00,56.0,13.1,30.23,SSE,165,0.0,2.0,18,0.00,,---,0.00,VWS V14.00,2013-01-19 19:18:00,
2013-01-19 12:24:00,56.8,13.8,30.22,SE,144,0.0,0.0,18,0.00,,---,0.00,VWS V14.00,2013-01-19 19:24:00,
2013-01-19 12:29:00,57.6,13.1,30.21,SE,144,0.0,1.0,17,0.00,,---,0.00,VWS V14.00,2013-01-19 19:29:00,
2013-01-19 12:35:00,57.7,14.5,30.21,SE,140,1.0,1.0,18,0.00,,---,0.00,VWS V14.00,2013-01-19 19:35:00,
2013-01-19 12:40:00,57.3,14.2,30.21,ESE,113,2.0,4.0,18,0.00,,---,0.00,VWS V14.00,2013-01-19 19:40:00,
2013-01-19 12:45:00,57.9,12.0,30.21,SSW,202,3.0,4.0,16,0.00,,---,0.00,VWS V14.00,2013-01-19 19:45:00,
2013-01-19 12:51:00,57.1,11.4,30.20,ESE,109,0.0,3.0,16,0.00,,---,0.00,VWS V14.00,2013-01-19 19:51:00,
2013-01-19 12:57:00,57.5,13.1,30.20,ESE,114,0.0,1.0,17,0.00,,---,0.00,VWS V14.00,2013-01-19 19:57:00,
2013-01-19 13:02:00,58.5,11.0,30.20,ESE,115,0.0,2.0,15,0.00,,---,0.00,VWS V14.00,2013-01-19 20:02:00,
2013-01-19 13:08:00,57.9,12.0,30.21,NNE,14,0.0,0.0,16,0.00,,---,0.00,VWS V14.00,2013-01-19 20:08:00,
2013-01-19 13:13:00,59.0,11.4,30.20,NNE,14,0.0,1.0,15,0.00,,---,0.00,VWS V14.00,2013-01-19 20:13:00,
2013-01-19 13:20:00,60.0,13.7,30.19,NNE,14,1.0,1.0,16,0.00,,---,0.00,VWS V14.00,2013-01-19 20:20:00,
2013-01-19 13:50:00,61.1,11.6,30.17,South,180,0.0,0.0,14,0.00,,---,0.00,VWS V14.00,2013-01-19 20:50:00,
2013-01-19 13:55:00,61.1,11.6,30.17,South,178,0.0,0.0,14,0.00,,---,0.00,VWS V14.00,2013-01-19 20:55:00,
2013-01-19 14:00:00,59.6,11.9,30.19,South,173,0.0,1.0,15,0.00,,---,0.00,VWS V14.00,2013-01-19 21:00:00,
2013-01-19 14:05:00,61.7,12.1,30.17,South,181,0.0,3.0,14,0.00,,---,0.00,VWS V14.00,2013-01-19 21:05:00,
2013-01-19 14:11:00,62.3,12.5,30.18,South,180,0.0,1.0,14,0.00,,---,0.00,VWS V14.00,2013-01-19 21:11:00,
2013-01-19 14:20:00,61.1,11.6,30.17,South,181,0.0,1.0,14,0.00,,---,0.00,VWS V14.00,2013-01-19 21:20:00,
2013-01-19 14:25:00,61.6,12.0,30.17,South,181,0.0,1.0,14,0.00,,---,0.00,VWS V14.00,2013-01-19 21:25:00,
2013-01-19 14:30:00,61.0,11.5,30.17,South,181,0.0,0.0,14,0.00,,---,0.00,VWS V14.00,2013-01-19 21:30:00,
2013-01-19 14:35:00,60.5,9.4,30.19,South,180,0.0,0.0,13,0.00,,---,0.00,VWS V14.00,2013-01-19 21:35:00,
2013-01-19 14:44:00,61.4,11.8,30.17,SSW,197,0.0,0.0,14,0.00,,---,0.00,VWS V14.00,2013-01-19 21:44:00,
2013-01-19 14:49:00,62.3,10.9,30.17,SSW,192,0.0,0.0,13,0.00,,---,0.00,VWS V14.00,2013-01-19 21:49:00,
2013-01-19 14:56:00,62.7,11.2,30.16,SSW,194,0.0,0.0,13,0.00,,---,0.00,VWS V14.00,2013-01-19 21:56:00,
2013-01-19 15:02:00,62.3,10.9,30.17,SSW,197,1.0,1.0,13,0.00,,---,0.00,VWS V14.00,2013-01-19 22:02:00,
2013-01-19 15:08:00,61.3,11.7,30.12,SSW,197,0.0,0.0,14,0.00,,---,0.00,VWS V14.00,2013-01-19 22:08:00,
2013-01-19 15:14:00,60.4,9.4,30.13,SSW,195,0.0,2.0,13,0.00,,---,0.00,VWS V14.00,2013-01-19 22:14:00,
2013-01-19 15:19:00,60.0,9.0,30.14,SSW,195,0.0,0.0,13,0.00,,---,0.00,VWS V14.00,2013-01-19 22:19:00,
2013-01-19 15:24:00,59.7,10.4,30.14,SSW,205,0.0,0.0,14,0.00,,---,0.00,VWS V14.00,2013-01-19 22:24:00,
2013-01-19 15:29:00,59.6,10.4,30.14,SSW,210,0.0,1.0,14,0.00,,---,0.00,VWS V14.00,2013-01-19 22:29:00,
2013-01-19 15:35:00,59.1,10.0,30.14,SSW,211,0.0,1.0,14,0.00,,---,0.00,VWS V14.00,2013-01-19 22:35:00,
2013-01-19 15:40:00,59.0,9.9,30.14,West,281,0.0,0.0,14,0.00,,---,0.00,VWS V14.00,2013-01-19 22:40:00,
2013-01-19 15:45:00,58.6,9.6,30.14,West,281,0.0,0.0,14,0.00,,---,0.00,VWS V14.00,2013-01-19 22:45:00,
2013-01-19 15:50:00,58.3,9.3,30.15,West,281,0.0,1.0,14,0.00,,---,0.00,VWS V14.00,2013-01-19 22:50:00,
2013-01-19 15:55:00,58.0,9.1,30.15,WNW,284,0.0,1.0,14,0.00,,---,0.00,VWS V14.00,2013-01-19 22:55:00,
2013-01-19 16:00:00,57.9,9.0,30.15,WNW,284,0.0,0.0,14,0.00,,---,0.00,VWS V14.00,2013-01-19 23:00:00,
2013-01-19 16:05:00,57.4,8.6,30.14,WNW,284,0.0,0.0,14,0.00,,---,0.00,VWS V14.00,2013-01-19 23:05:00,
2013-01-19 16:11:00,57.2,8.4,30.14,WNW,283,1.0,1.0,14,0.00,,---,0.00,VWS V14.00,2013-01-19 23:11:00,
2013-01-19 16:18:00,56.8,8.1,30.14,WNW,283,0.0,0.0,14,0.00,,---,0.00,VWS V14.00,2013-01-19 23:18:00,
2013-01-19 16:23:00,56.5,7.9,30.14,WNW,286,0.0,1.0,14,0.00,,---,0.00,VWS V14.00,2013-01-19 23:23:00,
2013-01-19 16:30:00,56.3,7.7,30.16,North,9,0.0,4.0,14,0.00,,---,0.00,VWS V14.00,2013-01-19 23:30:00,
2013-01-19 16:35:00,55.7,7.3,30.16,North,9,0.0,0.0,14,0.00,,---,0.00,VWS V14.00,2013-01-19 23:35:00,
2013-01-19 16:40:00,55.0,8.2,30.16,North,5,0.0,1.0,15,0.00,,---,0.00,VWS V14.00,2013-01-19 23:40:00,
2013-01-19 16:45:00,54.7,6.5,30.16,NNE,13,0.0,3.0,14,0.00,,---,0.00,VWS V14.00,2013-01-19 23:45:00,
2013-01-19 16:50:00,54.1,7.5,30.17,NNE,13,0.0,0.0,15,0.00,,---,0.00,VWS V14.00,2013-01-19 23:50:00,
2013-01-19 16:56:00,52.9,6.5,30.17,NNE,12,0.0,1.0,15,0.00,,---,0.00,VWS V14.00,2013-01-19 23:56:00,
2013-01-19 17:02:00,52.6,6.3,30.21,North,5,0.0,0.0,15,0.00,,---,0.00,VWS V14.00,2013-01-20 00:02:00,
2013-01-19 17:10:00,51.8,5.6,30.22,North,5,0.0,0.0,15,0.00,,---,0.00,VWS V14.00,2013-01-20 00:10:00,
2013-01-19 17:15:00,51.2,6.6,30.22,NNW,347,3.0,5.0,16,0.00,,---,0.00,VWS V14.00,2013-01-20 00:15:00,
2013-01-19 17:20:00,50.8,6.2,30.23,NNW,346,0.0,2.0,16,0.00,,---,0.00,VWS V14.00,2013-01-20 00:20:00,
2013-01-19 17:25:00,50.2,5.8,30.24,NNW,347,0.0,0.0,16,0.00,,---,0.00,VWS V14.00,2013-01-20 00:25:00,
2013-01-19 17:30:00,49.6,5.3,30.24,NNW,347,0.0,0.0,16,0.00,,---,0.00,VWS V14.00,2013-01-20 00:30:00,
2013-01-19 17:35:00,49.6,5.3,30.24,West,276,0.0,1.0,16,0.00,,---,0.00,VWS V14.00,2013-01-20 00:35:00,
2013-01-19 17:40:00,49.5,5.2,30.24,West,276,1.0,1.0,16,0.00,,---,0.00,VWS V14.00,2013-01-20 00:40:00,
2013-01-19 17:45:00,49.2,4.9,30.24,North,351,0.0,0.0,16,0.00,,---,0.00,VWS V14.00,2013-01-20 00:45:00,
2013-01-19 17:50:00,48.8,4.6,30.24,North,351,1.0,1.0,16,0.00,,---,0.00,VWS V14.00,2013-01-20 00:50:00,
2013-01-19 17:55:00,48.2,5.4,30.25,North,351,0.0,0.0,17,0.00,,---,0.00,VWS V14.00,2013-01-20 00:55:00,
2013-01-19 18:00:00,47.6,4.9,30.25,North,350,0.0,0.0,17,0.00,,---,0.00,VWS V14.00,2013-01-20 01:00:00,
2013-01-19 18:05:00,46.5,4.1,30.29,North,351,0.0,0.0,17,0.00,,---,0.00,VWS V14.00,2013-01-20 01:05:00,
2013-01-19 18:10:00,45.9,4.8,30.29,North,351,0.0,0.0,18,0.00,,---,0.00,VWS V14.00,2013-01-20 01:10:00,
2013-01-19 18:15:00,45.0,5.2,30.30,North,350,0.0,0.0,19,0.00,,---,0.00,VWS V14.00,2013-01-20 01:15:00,
2013-01-19 18:21:00,44.1,5.6,30.30,North,350,0.0,0.0,20,0.00,,---,0.00,VWS V14.00,2013-01-20 01:21:00,
2013-01-19 18:26:00,43.3,4.9,30.32,North,351,0.0,0.0,20,0.00,,---,0.00,VWS V14.00,2013-01-20 01:26:00,
2013-01-19 18:32:00,42.4,5.2,30.32,North,351,0.0,0.0,21,0.00,,---,0.00,VWS V14.00,2013-01-20 01:32:00,
2013-01-19 18:37:00,41.5,5.5,30.32,North,351,0.0,1.0,22,0.00,,---,0.00,VWS V14.00,2013-01-20 01:37:00,
2013-01-19 18:43:00,41.0,6.1,30.33,North,351,0.0,0.0,23,0.00,,---,0.00,VWS V14.00,2013-01-20 01:43:00,
2013-01-19 18:48:00,41.0,5.1,30.33,North,350,0.0,0.0,22,0.00,,---,0.00,VWS V14.00,2013-01-20 01:48:00,
2013-01-19 18:54:00,40.9,5.0,30.33,North,350,0.0,0.0,22,0.00,,---,0.00,VWS V14.00,2013-01-20 01:54:00,
2013-01-19 18:59:00,41.2,6.2,30.33,North,351,0.0,0.0,23,0.00,,---,0.00,VWS V14.00,2013-01-20 01:59:00,
2013-01-19 19:05:00,40.8,5.9,30.34,North,351,0.0,0.0,23,0.00,,---,0.00,VWS V14.00,2013-01-20 02:05:00,
2013-01-19 19:10:00,40.4,6.5,30.34,North,350,0.0,0.0,24,0.00,,---,0.00,VWS V14.00,2013-01-20 02:10:00,
2013-01-19 19:15:00,40.0,7.0,30.35,North,351,0.0,0.0,25,0.00,,---,0.00,VWS V14.00,2013-01-20 02:15:00,
2013-01-19 19:20:00,40.0,7.0,30.34,North,351,0.0,0.0,25,0.00,,---,0.00,VWS V14.00,2013-01-20 02:20:00,
2013-01-19 19:25:00,39.6,7.6,30.34,North,351,0.0,0.0,26,0.00,,---,0.00,VWS V14.00,2013-01-20 02:25:00,
2013-01-19 19:30:00,39.7,7.6,30.34,North,350,0.0,0.0,26,0.00,,---,0.00,VWS V14.00,2013-01-20 02:30:00,
2013-01-19 19:36:00,40.3,9.0,30.34,North,350,0.0,0.0,27,0.00,,---,0.00,VWS V14.00,2013-01-20 02:36:00,
2013-01-19 19:42:00,40.7,9.3,30.34,NE,51,0.0,0.0,27,0.00,,---,0.00,VWS V14.00,2013-01-20 02:42:00,
2013-01-19 19:47:00,41.0,9.6,30.34,NE,51,0.0,0.0,27,0.00,,---,0.00,VWS V14.00,2013-01-20 02:47:00,
2013-01-19 19:54:00,40.9,10.3,30.35,NE,51,0.0,0.0,28,0.00,,---,0.00,VWS V14.00,2013-01-20 02:54:00,
2013-01-19 19:59:00,40.9,10.3,30.34,NE,51,0.0,0.0,28,0.00,,---,0.00,VWS V14.00,2013-01-20 02:59:00,
2013-01-19 20:05:00,40.5,10.8,30.29,NE,51,0.0,0.0,29,0.00,,---,0.00,VWS V14.00,2013-01-20 03:05:00,
2013-01-19 20:13:00,39.9,10.2,30.30,NE,51,0.0,0.0,29,0.00,,---,0.00,VWS V14.00,2013-01-20 03:13:00,
2013-01-19 20:18:00,38.8,10.0,30.29,NE,51,0.0,0.0,30,0.00,,---,0.00,VWS V14.00,2013-01-20 03:18:00,
2013-01-19 20:24:00,38.2,10.2,30.31,NE,51,0.0,0.0,31,0.00,,---,0.00,VWS V14.00,2013-01-20 03:24:00,
2013-01-19 20:29:00,37.8,9.9,30.31,NE,51,0.0,0.0,31,0.00,,---,0.00,VWS V14.00,2013-01-20 03:29:00,
2013-01-19 20:36:00,37.1,10.0,30.30,NE,51,0.0,0.0,32,0.00,,---,0.00,VWS V14.00,2013-01-20 03:36:00,
2013-01-19 20:44:00,36.6,10.2,30.30,NE,51,0.0,0.0,33,0.00,,---,0.00,VWS V14.00,2013-01-20 03:44:00,
2013-01-19 20:51:00,36.3,10.6,30.31,NE,51,0.0,0.0,34,0.00,,---,0.00,VWS V14.00,2013-01-20 03:51:00,
2013-01-19 20:56:00,36.3,10.6,30.32,NE,51,0.0,0.0,34,0.00,,---,0.00,VWS V14.00,2013-01-20 03:56:00,
2013-01-19 21:01:00,36.2,10.6,30.32,NE,51,0.0,0.0,34,0.00,,---,0.00,VWS V14.00,2013-01-20 04:01:00,
2013-01-19 21:06:00,36.1,10.5,30.28,NE,51,0.0,0.0,34,0.00,,---,0.00,VWS V14.00,2013-01-20 04:06:00,
2013-01-19 21:12:00,35.9,10.9,30.28,NE,51,0.0,0.0,35,0.00,,---,0.00,VWS V14.00,2013-01-20 04:12:00,
2013-01-19 21:18:00,35.8,10.2,30.28,NE,51,0.0,0.0,34,0.00,,---,0.00,VWS V14.00,2013-01-20 04:18:00,
2013-01-19 21:23:00,35.7,10.8,30.27,NE,51,0.0,0.0,35,0.00,,---,0.00,VWS V14.00,2013-01-20 04:23:00,
2013-01-19 21:28:00,35.5,10.6,30.27,NE,51,0.0,0.0,35,0.00,,---,0.00,VWS V14.00,2013-01-20 04:28:00,
2013-01-19 21:36:00,35.2,10.9,30.28,NE,51,0.0,0.0,36,0.00,,---,0.00,VWS V14.00,2013-01-20 04:36:00,
2013-01-19 21:41:00,35.0,10.8,30.27,NE,51,0.0,0.0,36,0.00,,---,0.00,VWS V14.00,2013-01-20 04:41:00,
2013-01-19 21:47:00,34.7,11.1,30.27,NE,51,0.0,0.0,37,0.00,,---,0.00,VWS V14.00,2013-01-20 04:47:00,
2013-01-19 21:53:00,34.4,10.8,30.28,NE,51,0.0,0.0,37,0.00,,---,0.00,VWS V14.00,2013-01-20 04:53:00,
2013-01-19 22:00:00,34.4,10.8,30.28,NE,51,0.0,1.0,37,0.00,,---,0.00,VWS V14.00,2013-01-20 05:00:00,
2013-01-19 22:01:00,34.4,10.8,30.28,NE,51,0.0,0.0,37,0.00,,---,0.00,VWS V14.00,2013-01-20 05:01:00,
2013-01-19 22:03:00,34.1,11.2,30.23,NE,51,0.0,0.0,38,0.00,,---,0.00,VWS V14.00,2013-01-20 05:03:00,
2013-01-19 22:04:00,34.1,11.2,30.23,NE,51,0.0,0.0,38,0.00,,---,0.00,VWS V14.00,2013-01-20 05:04:00,
2013-01-19 22:09:00,33.8,10.9,30.23,NE,51,0.0,0.0,38,0.00,,---,0.00,VWS V14.00,2013-01-20 05:09:00,
2013-01-19 22:14:00,33.6,11.3,30.23,NE,51,0.0,0.0,39,0.00,,---,0.00,VWS V14.00,2013-01-20 05:14:00,
2013-01-19 22:19:00,33.4,11.1,30.24,NE,51,0.0,0.0,39,0.00,,---,0.00,VWS V14.00,2013-01-20 05:19:00,
2013-01-19 22:24:00,33.2,10.9,30.24,NE,51,0.0,0.0,39,0.00,,---,0.00,VWS V14.00,2013-01-20 05:24:00,
2013-01-19 22:29:00,33.0,10.8,30.24,NE,51,0.0,0.0,39,0.00,,---,0.00,VWS V14.00,2013-01-20 05:29:00,
2013-01-19 22:34:00,32.9,10.7,30.24,NE,51,0.0,0.0,39,0.00,,---,0.00,VWS V14.00,2013-01-20 05:34:00,
2013-01-19 22:39:00,32.7,10.5,30.24,NE,51,0.0,0.0,39,0.00,,---,0.00,VWS V14.00,2013-01-20 05:39:00,
2013-01-19 22:44:00,32.6,10.4,30.24,NE,51,0.0,0.0,39,0.00,,---,0.00,VWS V14.00,2013-01-20 05:44:00,
2013-01-19 22:49:00,32.3,10.7,30.24,NE,51,0.0,0.0,40,0.00,,---,0.00,VWS V14.00,2013-01-20 05:49:00,
2013-01-19 22:54:00,32.1,10.5,30.24,NE,51,0.0,0.0,40,0.00,,---,0.00,VWS V14.00,2013-01-20 05:54:00,
2013-01-19 22:59:00,31.8,10.2,30.23,NE,51,0.0,0.0,40,0.00,,---,0.00,VWS V14.00,2013-01-20 05:59:00,
2013-01-19 23:04:00,31.6,10.6,30.21,NE,51,0.0,0.0,41,0.00,,---,0.00,VWS V14.00,2013-01-20 06:04:00,
2013-01-19 23:09:00,31.3,10.3,30.22,NE,51,0.0,0.0,41,0.00,,---,0.00,VWS V14.00,2013-01-20 06:09:00,
2013-01-19 23:14:00,31.1,10.2,30.22,NE,51,0.0,0.0,41,0.00,,---,0.00,VWS V14.00,2013-01-20 06:14:00,
2013-01-19 23:19:00,30.9,10.5,30.22,NE,51,0.0,0.0,42,0.00,,---,0.00,VWS V14.00,2013-01-20 06:19:00,
2013-01-19 23:24:00,30.7,10.3,30.22,NE,51,0.0,0.0,42,0.00,,---,0.00,VWS V14.00,2013-01-20 06:24:00,
2013-01-19 23:29:00,30.4,10.1,30.22,NE,51,0.0,0.0,42,0.00,,---,0.00,VWS V14.00,2013-01-20 06:29:00,
2013-01-19 23:34:00,30.0,10.7,30.22,NE,51,0.0,0.0,44,0.00,,---,0.00,VWS V14.00,2013-01-20 06:34:00,
2013-01-19 23:39:00,29.7,11.0,30.22,NE,51,0.0,0.0,45,0.00,,---,0.00,VWS V14.00,2013-01-20 06:39:00,
2013-01-19 23:44:00,29.5,10.8,30.22,NE,51,0.0,0.0,45,0.00,,---,0.00,VWS V14.00,2013-01-20 06:44:00,
2013-01-19 23:49:00,29.3,10.6,30.23,NE,51,0.0,0.0,45,0.00,,---,0.00,VWS V14.00,2013-01-20 06:49:00,
2013-01-19 23:54:00,29.2,10.5,30.23,NE,51,0.0,0.0,45,0.00,,---,0.00,VWS V14.00,2013-01-20 06:54:00,
2013-01-19 23:59:00,28.9,10.2,30.23,NE,51,0.0,0.0,45,0.00,,---,0.00,VWS V14.00,2013-01-20 06:59:00,